Time;durP1;ratioP1;P1;durP2;ratioP2;P2;SDS_P1;SDS_P2;PMS_P1;PMS_P2;Temp;Humidity;BMP_temperature;BMP_pressure;BME280_temperature;BME280_humidity;BME280_pressure;Samples;Min_cycle;Max_cycle;Signal;HPM_P1;HPM_P2
2021/05/31 00:01:58;;;;;;;4.25;3.33;;;9.60;99.90;;;;;;5041171;28;20017;-71
2021/05/31 00:04:24;;;;;;;3.90;3.33;;;9.50;99.90;;;;;;5051248;28;20047;-72
2021/05/31 00:07:08;;;;;;;3.33;2.88;;;9.50;99.90;;;;;;5035599;28;20067;-73
2021/05/31 00:09:35;;;;;;;5.28;3.10;;;9.40;99.90;;;;;;5051028;28;20049;-72
2021/05/31 00:12:02;;;;;;;7.50;3.67;;;9.40;99.90;;;;;;5051112;28;20050;-72
2021/05/31 00:14:28;;;;;;;3.85;3.08;;;9.10;99.90;;;;;;5051185;28;20029;-72
2021/05/31 00:16:54;;;;;;;4.85;3.53;;;9.10;99.90;;;;;;5052452;28;20021;-72
2021/05/31 00:19:20;;;;;;;3.88;3.47;;;9.20;99.90;;;;;;5054707;28;20021;-72
2021/05/31 00:21:46;;;;;;;4.57;3.63;;;9.00;99.90;;;;;;5055093;28;20108;-72
2021/05/31 00:24:13;;;;;;;3.50;3.20;;;9.00;99.90;;;;;;5055017;28;20029;-72
2021/05/31 00:26:38;;;;;;;4.22;3.47;;;8.90;99.90;;;;;;5055018;28;20031;-72
2021/05/31 00:29:04;;;;;;;4.57;3.60;;;8.80;99.90;;;;;;5054816;28;20021;-72
2021/05/31 00:31:30;;;;;;;4.60;3.22;;;8.70;99.90;;;;;;5054976;28;20033;-72
2021/05/31 00:33:55;;;;;;;4.15;3.65;;;8.80;99.90;;;;;;5061258;28;20029;-72
2021/05/31 00:36:21;;;;;;;3.95;3.55;;;8.70;99.90;;;;;;5054723;28;20429;-72
2021/05/31 00:38:47;;;;;;;4.78;3.50;;;8.70;99.90;;;;;;5056738;28;20038;-71
2021/05/31 00:41:13;;;;;;;5.13;3.72;;;8.60;99.90;;;;;;5054570;28;20021;-71
2021/05/31 00:43:38;;;;;;;5.00;3.65;;;8.50;99.90;;;;;;5057855;28;20539;-72
2021/05/31 00:46:05;;;;;;;3.80;3.40;;;8.40;99.90;;;;;;5074575;28;20060;-73
2021/05/31 00:48:31;;;;;;;5.10;3.55;;;8.40;99.90;;;;;;5061242;28;20021;-71
2021/05/31 00:50:59;;;;;;;4.13;3.40;;;8.40;99.90;;;;;;5064696;28;20044;-72
2021/05/31 00:53:25;;;;;;;4.47;3.10;;;8.50;99.90;;;;;;5068094;28;20025;-72
2021/05/31 00:55:50;;;;;;;4.72;3.55;;;8.50;99.90;;;;;;5041809;28;20036;-71
2021/05/31 00:58:16;;;;;;;5.35;3.90;;;8.40;99.90;;;;;;5055898;28;20518;-71
2021/05/31 01:00:43;;;;;;;8.45;3.80;;;8.40;99.90;;;;;;5064201;28;20036;-71
2021/05/31 01:03:09;;;;;;;4.43;4.00;;;8.30;99.90;;;;;;5036494;28;20029;-71
2021/05/31 01:05:34;;;;;;;4.38;3.47;;;8.20;99.90;;;;;;5065492;28;20510;-71
2021/05/31 01:08:07;;;;;;;4.80;3.38;;;8.10;99.90;;;;;;5074369;28;20024;-71
2021/05/31 01:10:43;;;;;;;4.03;3.63;;;8.00;99.90;;;;;;5074127;28;20028;-72
2021/05/31 01:13:41;;;;;;;5.13;3.60;;;7.90;99.90;;;;;;5056381;28;20484;-72
2021/05/31 01:16:30;;;;;;;4.78;3.50;;;7.90;99.90;;;;;;5074002;28;20035;-71
2021/05/31 01:18:59;;;;;;;5.25;3.53;;;7.90;99.90;;;;;;5073470;28;20031;-71
2021/05/31 01:21:43;;;;;;;5.57;3.72;;;8.00;99.90;;;;;;5061638;28;20033;-72
2021/05/31 01:24:36;;;;;;;3.90;3.60;;;8.10;99.90;;;;;;5055992;28;20048;-71
2021/05/31 01:27:20;;;;;;;4.80;3.38;;;8.20;99.90;;;;;;5073499;28;20033;-71
2021/05/31 01:29:48;;;;;;;6.07;3.42;;;8.20;99.90;;;;;;5064378;28;20078;-72
2021/05/31 01:32:14;;;;;;;4.07;3.60;;;8.40;99.90;;;;;;5070578;28;20035;-70
2021/05/31 01:34:42;;;;;;;5.05;3.40;;;8.40;99.90;;;;;;5073857;28;20027;-70
2021/05/31 01:37:15;;;;;;;4.50;3.67;;;8.40;99.90;;;;;;5055857;28;20039;-70
2021/05/31 01:39:44;;;;;;;4.97;3.60;;;8.50;99.90;;;;;;5055577;28;20036;-71
2021/05/31 01:42:10;;;;;;;4.65;3.38;;;8.50;99.90;;;;;;5042339;28;20021;-70
2021/05/31 01:44:38;;;;;;;4.03;3.63;;;8.50;99.90;;;;;;5074068;28;20350;-70
2021/05/31 01:47:04;;;;;;;4.72;3.83;;;8.50;99.90;;;;;;5042195;28;20028;-70
2021/05/31 01:49:30;;;;;;;5.20;4.15;;;8.40;99.90;;;;;;5061431;28;20039;-70
2021/05/31 01:51:57;;;;;;;5.15;3.70;;;8.40;99.90;;;;;;5048989;28;20435;-70
2021/05/31 01:54:23;;;;;;;5.30;4.00;;;8.20;99.90;;;;;;5062723;28;20113;-70
2021/05/31 01:56:50;;;;;;;4.38;3.40;;;8.20;99.90;;;;;;5053462;28;20044;-71
2021/05/31 01:59:20;;;;;;;3.42;3.13;;;8.20;99.90;;;;;;5053225;28;20056;-71
2021/05/31 02:01:47;;;;;;;4.30;3.40;;;8.10;99.90;;;;;;5063507;28;20396;-71
2021/05/31 02:04:15;;;;;;;4.60;3.63;;;8.00;99.90;;;;;;5053304;28;20043;-71
2021/05/31 02:06:40;;;;;;;4.22;3.80;;;8.10;99.90;;;;;;5042548;28;20050;-71
2021/05/31 02:09:06;;;;;;;4.25;3.35;;;8.10;99.90;;;;;;5059539;28;20025;-71
2021/05/31 02:11:43;;;;;;;8.75;3.80;;;8.10;99.90;;;;;;5055189;28;20399;-72
2021/05/31 02:14:23;;;;;;;5.07;3.90;;;8.10;99.90;;;;;;5053746;28;20025;-72
2021/05/31 02:17:03;;;;;;;4.43;4.03;;;8.00;99.90;;;;;;5063137;28;20104;-72
2021/05/31 02:19:33;;;;;;;5.03;3.50;;;8.00;99.90;;;;;;5053867;28;20055;-71
2021/05/31 02:22:00;;;;;;;5.60;3.97;;;7.90;99.90;;;;;;5065343;28;20029;-71
2021/05/31 02:24:26;;;;;;;5.70;3.85;;;7.80;99.90;;;;;;5053806;28;20048;-70
2021/05/31 02:26:52;;;;;;;4.60;3.50;;;8.00;99.90;;;;;;5065406;28;20055;-71
2021/05/31 02:29:19;;;;;;;4.38;3.85;;;7.80;99.90;;;;;;5059186;28;20039;-71
2021/05/31 02:31:44;;;;;;;5.90;4.50;;;7.90;99.90;;;;;;5059937;28;20485;-71
2021/05/31 02:34:10;;;;;;;6.82;4.30;;;8.00;99.90;;;;;;5071942;28;20047;-72
2021/05/31 02:36:35;;;;;;;6.22;4.47;;;7.90;99.90;;;;;;5054562;28;20396;-71
2021/05/31 02:39:02;;;;;;;4.93;4.50;;;8.10;99.90;;;;;;5052214;28;20029;-71
2021/05/31 02:41:28;;;;;;;6.55;4.40;;;7.80;99.90;;;;;;5047126;28;20107;-71
2021/05/31 02:43:53;;;;;;;4.85;4.25;;;7.10;99.90;;;;;;5072418;28;20052;-71
2021/05/31 02:46:19;;;;;;;6.55;4.50;;;6.90;99.90;;;;;;5072117;28;20028;-71
2021/05/31 02:48:45;;;;;;;6.10;4.50;;;6.70;99.90;;;;;;5072421;28;20031;-71
2021/05/31 02:51:10;;;;;;;4.95;4.07;;;6.70;99.90;;;;;;5072179;28;20028;-71
2021/05/31 02:53:36;;;;;;;8.82;5.22;;;6.90;99.90;;;;;;5072303;28;20032;-71
2021/05/31 02:56:02;;;;;;;4.45;3.92;;;7.20;99.90;;;;;;5055396;28;20108;-71
2021/05/31 02:58:28;;;;;;;4.75;4.28;;;7.20;99.90;;;;;;5071401;28;20029;-71
2021/05/31 03:00:54;;;;;;;5.22;4.72;;;7.10;99.90;;;;;;5069310;28;20028;-71
2021/05/31 03:03:20;;;;;;;4.68;4.25;;;6.90;99.90;;;;;;5058048;28;20028;-70
2021/05/31 03:05:45;;;;;;;6.05;4.93;;;7.00;99.90;;;;;;5072074;28;20032;-71
2021/05/31 03:08:11;;;;;;;7.15;4.60;;;6.70;99.90;;;;;;5072095;28;20388;-71
2021/05/31 03:10:36;;;;;;;4.95;4.38;;;6.80;99.90;;;;;;5072075;28;20079;-71
2021/05/31 03:13:03;;;;;;;8.68;5.55;;;6.90;99.90;;;;;;5072026;28;20033;-70
2021/05/31 03:15:29;;;;;;;7.82;5.07;;;6.70;99.90;;;;;;5053865;28;20027;-72
2021/05/31 03:17:55;;;;;;;6.07;4.97;;;6.40;99.90;;;;;;5053950;28;20028;-72
2021/05/31 03:20:26;;;;;;;7.78;5.25;;;6.30;99.90;;;;;;5071591;28;20026;-72
2021/05/31 03:22:53;;;;;;;6.32;5.15;;;5.80;99.90;;;;;;5071952;28;20506;-72
2021/05/31 03:25:19;;;;;;;8.43;5.55;;;5.80;99.90;;;;;;5071916;28;20028;-72
2021/05/31 03:27:45;;;;;;;5.13;4.60;;;6.00;99.90;;;;;;5071804;28;20024;-72
2021/05/31 03:30:13;;;;;;;5.18;4.68;;;6.20;99.90;;;;;;5058587;28;20025;-71
2021/05/31 03:32:40;;;;;;;5.50;4.95;;;6.30;99.90;;;;;;5051687;28;20546;-71
2021/05/31 03:35:08;;;;;;;5.60;5.10;;;6.40;99.90;;;;;;5047262;28;20382;-71
2021/05/31 03:37:33;;;;;;;7.53;4.60;;;6.60;99.90;;;;;;5058781;28;20541;-71
2021/05/31 03:39:59;;;;;;;5.63;5.00;;;6.50;99.90;;;;;;5053245;28;20032;-70
2021/05/31 03:42:25;;;;;;;6.82;4.95;;;6.70;99.90;;;;;;5051670;28;20025;-71
2021/05/31 03:44:50;;;;;;;5.47;4.75;;;6.80;99.90;;;;;;5051382;28;20021;-71
2021/05/31 03:47:16;;;;;;;6.88;5.15;;;6.60;99.90;;;;;;5071487;28;20024;-70
2021/05/31 03:49:41;;;;;;;6.43;5.35;;;6.80;99.90;;;;;;5072179;28;20489;-70
2021/05/31 03:52:07;;;;;;;8.27;5.68;;;6.70;99.90;;;;;;5052342;28;20085;-70
2021/05/31 03:54:32;;;;;;;7.03;5.13;;;6.60;99.90;;;;;;5051390;28;20500;-70
2021/05/31 03:56:58;;;;;;;6.93;4.95;;;6.70;99.90;;;;;;5051353;28;20021;-70
2021/05/31 03:59:25;;;;;;;7.05;5.20;;;7.00;99.90;;;;;;5051265;28;20386;-70
2021/05/31 04:01:51;;;;;;;5.30;4.80;;;7.20;99.90;;;;;;5044698;28;20024;-71
2021/05/31 04:04:17;;;;;;;6.78;5.25;;;7.20;99.90;;;;;;5058067;28;20027;-71
2021/05/31 04:11:56;;;;;;;5.55;5.05;;;7.20;99.90;;;;;;5061109;28;20039;-71
2021/05/31 04:14:22;;;;;;;5.22;4.72;;;7.20;99.90;;;;;;5071291;28;20033;-71
2021/05/31 04:16:54;;;;;;;6.47;5.03;;;7.40;99.90;;;;;;5071225;28;20055;-70
2021/05/31 04:19:22;;;;;;;5.90;5.35;;;7.40;99.90;;;;;;5053101;28;20024;-70
2021/05/31 04:21:50;;;;;;;6.78;5.00;;;7.20;99.90;;;;;;5071130;28;20032;-71
2021/05/31 04:24:17;;;;;;;5.80;4.78;;;7.40;99.90;;;;;;5071082;28;20044;-71
2021/05/31 04:26:44;;;;;;;6.97;5.55;;;7.70;99.90;;;;;;5053156;28;20028;-71
2021/05/31 04:29:12;;;;;;;6.50;4.75;;;7.80;99.90;;;;;;5070901;28;20464;-72
2021/05/31 04:31:38;;;;;;;6.40;5.80;;;7.80;99.90;;;;;;5059285;28;20452;-70
2021/05/31 04:34:08;;;;;;;6.43;5.50;;;8.00;99.90;;;;;;5069727;28;20029;-70
2021/05/31 04:36:35;;;;;;;5.72;5.03;;;8.20;99.90;;;;;;5058585;28;20025;-71
2021/05/31 04:39:04;;;;;;;5.47;4.93;;;8.40;99.90;;;;;;5050823;28;20625;-70
2021/05/31 04:41:30;;;;;;;6.53;5.28;;;8.30;99.90;;;;;;5063737;28;20020;-71
2021/05/31 04:43:56;;;;;;;6.15;5.05;;;8.50;99.90;;;;;;5065162;28;20420;-71
2021/05/31 04:46:21;;;;;;;6.45;5.22;;;8.20;99.90;;;;;;5063343;28;20063;-71
2021/05/31 04:48:47;;;;;;;5.43;4.90;;;8.10;99.90;;;;;;5049568;28;20507;-70
2021/05/31 04:51:12;;;;;;;6.13;4.90;;;8.30;99.90;;;;;;5050461;28;20033;-70
2021/05/31 04:53:38;;;;;;;5.88;5.00;;;8.50;99.90;;;;;;5056713;28;20056;-71
2021/05/31 04:56:07;;;;;;;5.80;5.20;;;8.70;99.90;;;;;;5053800;28;20032;-71
2021/05/31 04:58:32;;;;;;;6.10;4.63;;;8.60;99.90;;;;;;5070726;28;20020;-71
2021/05/31 05:00:58;;;;;;;7.28;4.90;;;8.50;99.90;;;;;;5052738;28;20035;-71
2021/05/31 05:03:24;;;;;;;5.68;5.18;;;8.40;99.90;;;;;;5072918;28;20596;-71
2021/05/31 05:05:49;;;;;;;9.38;6.05;;;8.30;99.90;;;;;;5074317;28;20048;-71
2021/05/31 05:08:16;;;;;;;5.45;4.93;;;8.30;99.90;;;;;;5074301;28;20412;-71
2021/05/31 05:10:42;;;;;;;6.65;5.05;;;8.40;99.90;;;;;;5060921;28;20039;-71
2021/05/31 05:13:08;;;;;;;5.72;5.10;;;8.60;99.90;;;;;;5067743;28;20096;-71
2021/05/31 05:15:34;;;;;;;6.50;5.25;;;8.80;99.90;;;;;;5054160;28;20047;-71
2021/05/31 05:18:00;;;;;;;6.03;5.25;;;9.10;99.90;;;;;;5073720;28;20033;-71
2021/05/31 05:20:28;;;;;;;6.30;5.07;;;9.30;99.90;;;;;;5055794;28;20059;-71
2021/05/31 05:22:55;;;;;;;6.47;5.10;;;9.40;99.90;;;;;;5042820;28;20032;-71
2021/05/31 05:25:21;;;;;;;6.00;5.28;;;9.60;99.90;;;;;;5073932;28;20020;-71
2021/05/31 05:27:51;;;;;;;7.03;5.45;;;9.70;99.90;;;;;;5054935;28;20025;-71
2021/05/31 05:30:19;;;;;;;6.70;5.25;;;9.90;99.90;;;;;;5073761;28;20108;-71
2021/05/31 05:32:49;;;;;;;6.35;5.75;;;10.10;99.90;;;;;;5073858;28;20028;-71
2021/05/31 05:35:37;;;;;;;5.95;5.35;;;10.20;99.90;;;;;;5055806;28;20032;-71
2021/05/31 05:43:21;;;;;;;6.13;5.13;;;10.50;99.90;;;;;;5074120;28;20047;-71
2021/05/31 05:48:31;;;;;;;6.10;5.10;;;10.80;99.90;;;;;;5066982;28;20043;-71
2021/05/31 05:51:05;;;;;;;5.95;5.35;;;10.90;99.90;;;;;;5053400;28;20400;-71
2021/05/31 05:53:36;;;;;;;7.18;5.20;;;10.90;99.90;;;;;;5070725;28;20039;-71
2021/05/31 05:56:05;;;;;;;5.78;5.20;;;11.00;99.90;;;;;;5038497;28;20021;-71
2021/05/31 05:58:30;;;;;;;5.45;4.88;;;11.10;99.90;;;;;;5059631;28;20107;-72
2021/05/31 06:00:57;;;;;;;5.60;5.10;;;11.10;99.90;;;;;;5070389;28;20493;-72
2021/05/31 06:03:24;;;;;;;7.57;5.15;;;11.40;99.90;;;;;;5059465;28;20059;-71
2021/05/31 06:05:49;;;;;;;5.72;4.85;;;11.50;99.90;;;;;;5055289;28;20032;-72
2021/05/31 06:08:15;;;;;;;5.60;5.00;;;11.60;99.90;;;;;;5049209;28;20025;-71
2021/05/31 06:10:40;;;;;;;6.15;4.75;;;11.70;99.90;;;;;;5047686;28;20029;-71
2021/05/31 06:13:06;;;;;;;6.50;4.70;;;11.80;99.90;;;;;;5049181;28;20481;-71
2021/05/31 06:15:32;;;;;;;5.72;4.95;;;11.90;99.90;;;;;;5047573;28;20534;-70
2021/05/31 06:17:57;;;;;;;5.80;4.95;;;12.00;99.90;;;;;;5073058;28;20040;-71
2021/05/31 06:20:23;;;;;;;5.85;5.07;;;12.20;99.90;;;;;;5054828;28;20115;-71
2021/05/31 06:22:48;;;;;;;5.65;4.45;;;12.20;99.90;;;;;;5072890;28;20020;-70
2021/05/31 06:25:14;;;;;;;6.38;5.25;;;12.40;99.90;;;;;;5072624;28;20024;-71
2021/05/31 06:27:40;;;;;;;6.18;4.70;;;12.60;99.90;;;;;;5072765;28;20504;-71
2021/05/31 06:30:07;;;;;;;5.25;4.75;;;12.70;99.90;;;;;;5060758;28;20539;-71
2021/05/31 06:32:33;;;;;;;5.88;5.05;;;12.80;99.90;;;;;;5039950;28;20029;-71
2021/05/31 06:34:58;;;;;;;6.78;5.30;;;12.90;99.90;;;;;;5054774;28;20025;-71
2021/05/31 06:37:24;;;;;;;5.57;4.93;;;13.00;99.90;;;;;;5072557;28;20025;-71
2021/05/31 06:39:50;;;;;;;7.68;4.93;;;13.10;99.90;;;;;;5060122;28;20028;-71
2021/05/31 06:42:16;;;;;;;6.63;4.75;;;13.20;99.90;;;;;;5058131;28;20481;-71
2021/05/31 06:44:41;;;;;;;4.95;4.55;;;13.30;99.90;;;;;;5072463;28;20051;-71
2021/05/31 06:47:08;;;;;;;6.72;4.55;;;13.50;99.90;;;;;;5054487;28;20027;-71
2021/05/31 06:49:35;;;;;;;5.38;4.55;;;13.60;99.90;;;;;;5073061;28;20021;-71
2021/05/31 06:52:02;;;;;;;5.38;4.65;;;13.60;99.90;;;;;;5072888;28;20028;-70
2021/05/31 06:54:28;;;;;;;5.45;4.85;;;13.70;99.90;;;;;;5068797;28;20025;-71
2021/05/31 06:56:53;;;;;;;6.25;4.47;;;13.70;99.90;;;;;;5058958;28;20024;-72
2021/05/31 06:59:19;;;;;;;4.72;4.32;;;13.70;99.90;;;;;;5059384;28;20358;-71
2021/05/31 07:01:44;;;;;;;6.57;4.70;;;13.80;99.90;;;;;;5058090;28;20021;-71
2021/05/31 07:04:10;;;;;;;5.22;4.35;;;13.90;99.90;;;;;;5072205;28;20070;-71
2021/05/31 07:06:35;;;;;;;4.65;4.13;;;14.00;99.90;;;;;;5052874;28;20392;-72
2021/05/31 07:09:02;;;;;;;4.75;4.32;;;14.00;99.90;;;;;;5034056;28;20032;-72
2021/05/31 07:11:27;;;;;;;6.82;4.90;;;14.00;99.90;;;;;;5058272;28;20024;-72
2021/05/31 07:13:55;;;;;;;6.00;4.00;;;14.10;99.90;;;;;;5059141;28;20075;-72
2021/05/31 07:16:20;;;;;;;4.60;3.72;;;14.20;99.90;;;;;;5065301;28;20070;-72
2021/05/31 07:18:46;;;;;;;4.70;3.40;;;14.30;99.90;;;;;;5051900;28;20029;-71
2021/05/31 07:21:12;;;;;;;4.43;4.03;;;14.30;99.90;;;;;;5058063;28;20078;-71
2021/05/31 07:23:38;;;;;;;4.88;4.00;;;14.20;99.90;;;;;;5058935;28;20013;-71
2021/05/31 07:26:05;;;;;;;4.53;3.90;;;14.20;99.90;;;;;;5064808;28;20370;-72
2021/05/31 07:28:31;;;;;;;5.25;3.88;;;14.20;99.90;;;;;;5064702;28;20117;-72
2021/05/31 07:30:56;;;;;;;4.40;4.00;;;14.20;99.90;;;;;;5051921;28;20025;-72
2021/05/31 07:33:22;;;;;;;5.30;4.07;;;14.50;99.90;;;;;;5064560;28;20379;-72
2021/05/31 07:35:48;;;;;;;4.07;3.67;;;14.40;99.90;;;;;;5058280;28;20484;-71
2021/05/31 07:38:13;;;;;;;4.30;3.85;;;14.50;99.90;;;;;;5059308;28;20611;-72
2021/05/31 07:40:39;;;;;;;4.28;3.75;;;14.80;99.90;;;;;;5064762;28;20032;-72
2021/05/31 07:43:05;;;;;;;4.80;4.15;;;14.80;99.90;;;;;;5051635;28;20021;-72
2021/05/31 07:45:30;;;;;;;4.80;3.92;;;14.70;99.90;;;;;;5046882;28;20025;-72
2021/05/31 07:47:56;;;;;;;4.32;3.53;;;14.90;99.90;;;;;;5063677;28;20032;-72
2021/05/31 07:50:22;;;;;;;3.72;3.15;;;15.00;99.90;;;;;;5058073;28;20052;-72
2021/05/31 07:52:47;;;;;;;4.88;3.00;;;15.20;99.90;;;;;;5041302;28;20021;-71
2021/05/31 07:55:15;;;;;;;3.40;3.10;;;15.00;99.90;;;;;;5051407;28;20112;-71
2021/05/31 07:57:42;;;;;;;3.30;3.03;;;14.90;99.90;;;;;;5051622;28;20051;-71
2021/05/31 08:00:11;;;;;;;5.32;3.50;;;14.90;99.90;;;;;;5064555;28;20025;-72
2021/05/31 08:02:37;;;;;;;3.72;3.20;;;15.00;99.90;;;;;;5064810;28;20021;-72
2021/05/31 08:05:03;;;;;;;3.70;2.97;;;15.10;99.90;;;;;;5058284;28;20100;-72
2021/05/31 08:07:29;;;;;;;4.25;3.00;;;15.30;99.90;;;;;;5057471;28;20112;-72
2021/05/31 08:09:55;;;;;;;3.00;2.78;;;15.20;99.90;;;;;;5051148;28;20541;-72
2021/05/31 08:12:20;;;;;;;3.25;2.95;;;15.40;99.90;;;;;;5065108;28;20111;-72
2021/05/31 08:14:46;;;;;;;3.83;3.03;;;15.50;99.90;;;;;;5064505;28;20025;-72
2021/05/31 08:17:11;;;;;;;5.18;3.15;;;15.50;99.90;;;;;;5051280;28;20104;-72
2021/05/31 08:19:37;;;;;;;3.30;3.00;;;15.70;99.90;;;;;;5044501;28;20519;-72
2021/05/31 08:22:04;;;;;;;4.35;3.25;;;15.90;99.90;;;;;;5071219;28;20025;-73
2021/05/31 08:24:30;;;;;;;3.40;3.08;;;15.60;99.90;;;;;;5064487;28;20477;-71
2021/05/31 08:26:56;;;;;;;3.08;2.88;;;15.50;99.90;;;;;;5033301;28;20044;-72
2021/05/31 08:29:21;;;;;;;3.58;2.70;;;15.70;99.90;;;;;;5057948;28;20029;-72
2021/05/31 08:31:48;;;;;;;3.92;2.90;;;15.90;99.90;;;;;;5057689;28;20033;-72
2021/05/31 08:34:14;;;;;;;5.55;2.90;;;16.10;99.90;;;;;;5057954;28;20033;-72
2021/05/31 08:36:39;;;;;;;3.88;3.00;;;16.20;99.90;;;;;;5071065;28;20051;-72
2021/05/31 08:39:07;;;;;;;3.05;2.65;;;16.20;99.90;;;;;;5049495;28;20443;-72
2021/05/31 08:41:33;;;;;;;3.08;2.80;;;16.30;99.90;;;;;;5055493;28;20044;-72
2021/05/31 08:43:59;;;;;;;2.78;2.58;;;16.30;99.90;;;;;;5067508;28;20029;-72
2021/05/31 08:46:24;;;;;;;2.78;2.58;;;16.20;99.90;;;;;;5054716;28;20033;-72
2021/05/31 08:48:51;;;;;;;3.22;2.55;;;16.00;99.90;;;;;;5054848;28;20511;-72
2021/05/31 08:51:19;;;;;;;3.90;3.10;;;16.20;99.90;;;;;;5054440;28;20021;-72
2021/05/31 08:53:44;;;;;;;6.90;2.85;;;16.50;99.90;;;;;;5041300;28;20029;-72
2021/05/31 08:56:10;;;;;;;3.15;2.40;;;16.70;99.90;;;;;;5039693;28;20059;-71
2021/05/31 08:58:36;;;;;;;3.13;2.30;;;16.60;99.90;;;;;;5067581;28;20097;-72
2021/05/31 09:01:02;;;;;;;3.13;2.55;;;16.60;99.90;;;;;;5067747;28;20032;-73
2021/05/31 09:03:28;;;;;;;3.42;2.40;;;16.70;99.90;;;;;;5054461;28;20033;-72
2021/05/31 09:06:02;;;;;;;2.25;2.05;;;16.70;99.90;;;;;;5054524;28;20381;-72
2021/05/31 09:08:28;;;;;;;4.28;2.50;;;16.90;99.90;;;;;;5066207;28;20097;-72
2021/05/31 09:11:02;;;;;;;2.65;2.45;;;16.70;99.90;;;;;;5049773;28;20160;-72
2021/05/31 09:13:29;;;;;;;2.80;2.60;;;16.50;99.90;;;;;;5063448;28;20115;-73
2021/05/31 09:16:15;;;;;;;2.67;2.47;;;16.70;99.90;;;;;;5058505;28;20547;-72
2021/05/31 09:18:56;;;;;;;2.75;2.50;;;16.60;99.90;;;;;;5054381;28;20071;-71
2021/05/31 09:21:36;;;;;;;3.05;2.10;;;16.70;99.90;;;;;;5047840;28;20021;-72
2021/05/31 09:24:11;;;;;;;2.70;2.50;;;16.60;99.90;;;;;;5060859;28;20037;-72
2021/05/31 09:27:06;;;;;;;2.50;2.30;;;16.90;99.90;;;;;;5064003;28;20025;-72
2021/05/31 09:29:31;;;;;;;2.60;2.40;;;17.00;99.90;;;;;;5029107;28;20067;-72
2021/05/31 09:32:05;;;;;;;2.45;2.17;;;16.90;99.90;;;;;;5060627;28;20060;-72
2021/05/31 09:34:31;;;;;;;3.83;2.80;;;16.90;99.90;;;;;;5047795;28;20116;-72
2021/05/31 09:37:02;;;;;;;3.22;2.60;;;17.20;99.90;;;;;;5068566;28;20111;-72
2021/05/31 09:39:29;;;;;;;2.45;2.25;;;17.40;99.90;;;;;;5064969;28;20017;-72
2021/05/31 09:42:14;;;;;;;4.00;2.60;;;17.50;99.90;;;;;;5069138;28;20507;-73
2021/05/31 09:44:43;;;;;;;2.88;2.58;;;17.50;99.90;;;;;;5062473;28;20499;-72
2021/05/31 09:47:10;;;;;;;4.65;2.65;;;17.60;99.90;;;;;;5066985;28;20052;-72
2021/05/31 09:49:37;;;;;;;3.03;2.78;;;17.70;99.90;;;;;;5065889;28;20107;-72
2021/05/31 09:52:06;;;;;;;4.47;4.00;;;17.80;99.90;;;;;;5060221;28;20021;-72
2021/05/31 09:54:51;;;;;;;3.67;2.72;;;17.90;99.90;;;;;;5056842;28;20030;-72
2021/05/31 09:57:25;;;;;;;3.50;2.83;;;17.40;99.90;;;;;;5063027;28;20025;-73
2021/05/31 09:59:55;;;;;;;3.15;2.60;;;17.40;99.90;;;;;;5059756;28;20024;-73
2021/05/31 10:10:24;;;;;;;4.35;3.33;;;18.30;99.90;;;;;;5064207;28;20028;-72
2021/05/31 10:12:50;;;;;;;2.90;2.65;;;18.70;99.90;;;;;;5059791;28;20381;-72
2021/05/31 10:15:23;;;;;;;3.00;2.70;;;18.40;99.60;;;;;;5062332;28;20059;-72
2021/05/31 10:17:53;;;;;;;4.35;2.97;;;18.00;99.10;;;;;;5048619;28;20063;-72
2021/05/31 10:20:18;;;;;;;3.95;2.90;;;18.20;98.80;;;;;;5065162;28;20441;-72
2021/05/31 10:22:44;;;;;;;5.00;2.70;;;18.50;99.90;;;;;;5053946;28;20052;-72
2021/05/31 10:25:12;;;;;;;3.00;2.80;;;18.50;99.90;;;;;;5065259;28;20024;-72
2021/05/31 10:27:39;;;;;;;3.40;2.70;;;19.00;98.20;;;;;;5059597;28;20031;-73
2021/05/31 10:30:08;;;;;;;3.45;3.15;;;18.90;99.20;;;;;;5060218;28;20487;-71
2021/05/31 10:32:33;;;;;;;3.30;3.00;;;18.60;98.00;;;;;;5066138;28;20142;-71
2021/05/31 10:34:59;;;;;;;3.10;2.90;;;18.10;98.90;;;;;;5065961;28;20635;-72
2021/05/31 10:37:29;;;;;;;3.65;2.90;;;17.80;99.30;;;;;;5059214;28;20021;-72
2021/05/31 10:40:01;;;;;;;3.22;2.92;;;17.70;99.60;;;;;;5059211;28;20023;-72
2021/05/31 10:42:37;;;;;;;3.08;2.78;;;17.50;99.80;;;;;;5065071;28;20032;-72
2021/05/31 10:45:17;;;;;;;3.08;2.78;;;17.50;99.90;;;;;;5068461;28;20118;-72
2021/05/31 10:47:53;;;;;;;3.55;3.10;;;17.40;99.90;;;;;;5072421;28;20048;-72
2021/05/31 10:50:26;;;;;;;6.57;3.33;;;17.60;99.90;;;;;;5059062;28;20063;-73
2021/05/31 10:52:52;;;;;;;5.35;2.70;;;18.10;99.90;;;;;;5041058;28;20029;-73
2021/05/31 10:55:17;;;;;;;4.50;3.13;;;18.90;99.50;;;;;;5058973;28;20393;-72
2021/05/31 10:57:46;;;;;;;4.18;3.17;;;19.00;97.30;;;;;;5059173;28;20032;-72
2021/05/31 11:00:30;;;;;;;3.92;3.00;;;19.00;97.10;;;;;;5045039;28;20028;-72
2021/05/31 11:03:11;;;;;;;4.85;3.17;;;19.20;97.90;;;;;;5053051;28;20078;-72
2021/05/31 11:05:38;;;;;;;3.22;2.92;;;19.40;97.60;;;;;;5052193;28;20468;-71
2021/05/31 11:08:07;;;;;;;4.25;2.90;;;19.50;97.00;;;;;;5052275;28;20030;-72
2021/05/31 11:10:35;;;;;;;3.42;3.00;;;19.20;99.10;;;;;;5042510;28;20215;-73
2021/05/31 11:13:15;;;;;;;3.10;2.80;;;18.50;98.20;;;;;;5065634;28;20060;-72
2021/05/31 11:15:43;;;;;;;3.13;2.85;;;18.00;97.50;;;;;;5065326;28;20028;-73
2021/05/31 11:18:09;;;;;;;4.57;2.83;;;18.90;96.70;;;;;;5041351;28;20063;-72
2021/05/31 11:20:40;;;;;;;3.60;3.30;;;19.20;95.90;;;;;;5058088;28;20491;-72
2021/05/31 11:23:06;;;;;;;3.30;3.00;;;19.30;96.10;;;;;;5064234;28;20033;-72
2021/05/31 11:25:32;;;;;;;3.05;2.75;;;19.20;95.40;;;;;;5065329;28;20024;-72
2021/05/31 11:28:03;;;;;;;3.42;3.10;;;19.30;95.20;;;;;;5059603;28;20525;-72
2021/05/31 11:30:31;;;;;;;4.07;2.80;;;19.70;95.60;;;;;;5038521;28;20086;-73
2021/05/31 11:32:59;;;;;;;4.25;3.10;;;19.30;97.20;;;;;;5060508;28;20017;-74
2021/05/31 11:35:26;;;;;;;3.38;3.08;;;19.50;99.40;;;;;;5058399;28;20493;-74
2021/05/31 11:37:54;;;;;;;3.88;3.30;;;19.40;98.80;;;;;;5062670;28;20499;-72
2021/05/31 11:40:24;;;;;;;3.15;2.85;;;19.70;97.50;;;;;;5064808;28;20031;-72
2021/05/31 11:42:56;;;;;;;3.40;3.10;;;20.30;95.20;;;;;;5033856;28;20025;-72
2021/05/31 11:45:23;;;;;;;4.03;3.13;;;19.80;95.60;;;;;;5051419;28;20412;-73
2021/05/31 11:47:59;;;;;;;3.33;3.03;;;18.90;95.60;;;;;;5062615;28;20020;-72
2021/05/31 11:50:27;;;;;;;3.25;2.95;;;19.90;96.10;;;;;;5034649;28;20485;-72
2021/05/31 11:52:53;;;;;;;3.42;3.13;;;20.50;94.90;;;;;;5051590;28;20036;-72
2021/05/31 11:55:21;;;;;;;3.20;3.00;;;20.80;95.50;;;;;;5051439;28;20025;-72
2021/05/31 11:57:48;;;;;;;3.20;2.90;;;19.90;94.90;;;;;;5051565;28;20029;-72
2021/05/31 12:00:22;;;;;;;3.30;3.00;;;19.90;95.70;;;;;;5064355;28;20485;-72
2021/05/31 12:02:48;;;;;;;3.10;2.90;;;20.40;95.60;;;;;;5066309;28;20025;-72
2021/05/31 12:05:15;;;;;;;3.45;2.92;;;20.50;95.00;;;;;;5045109;28;20108;-72
2021/05/31 12:07:45;;;;;;;3.00;2.70;;;21.10;94.50;;;;;;5065039;28;20123;-72
2021/05/31 12:10:12;;;;;;;4.28;3.00;;;21.30;93.00;;;;;;5051294;28;20033;-72
2021/05/31 12:12:39;;;;;;;3.28;2.80;;;21.10;92.80;;;;;;5042783;28;20463;-72
2021/05/31 12:15:05;;;;;;;2.53;2.33;;;20.60;93.90;;;;;;5066284;28;20027;-72
2021/05/31 12:17:32;;;;;;;3.20;2.90;;;20.20;93.80;;;;;;5050708;28;20502;-72
2021/05/31 12:19:58;;;;;;;2.95;2.70;;;20.80;91.40;;;;;;5055152;28;20036;-72
2021/05/31 12:22:28;;;;;;;3.38;3.08;;;20.40;91.50;;;;;;5055340;28;20025;-72
2021/05/31 12:24:56;;;;;;;3.40;3.10;;;20.10;93.10;;;;;;5055320;28;20064;-72
2021/05/31 12:27:24;;;;;;;3.38;2.88;;;21.00;93.70;;;;;;5071325;28;20102;-72
2021/05/31 12:29:52;;;;;;;3.15;2.90;;;20.50;92.00;;;;;;5047640;28;20024;-73
2021/05/31 12:32:22;;;;;;;2.88;2.67;;;20.40;93.00;;;;;;5059637;28;20411;-73
2021/05/31 12:34:49;;;;;;;3.47;3.17;;;21.20;91.70;;;;;;5064806;28;20017;-71
2021/05/31 12:37:18;;;;;;;3.10;2.90;;;21.60;91.10;;;;;;5054879;28;20075;-73
2021/05/31 12:39:49;;;;;;;3.00;2.65;;;21.70;89.20;;;;;;5065721;28;20021;-72
2021/05/31 12:42:21;;;;;;;4.38;2.90;;;22.00;86.60;;;;;;5056657;28;20163;-72
2021/05/31 12:44:47;;;;;;;2.80;2.60;;;22.20;84.20;;;;;;5066829;28;20028;-72
2021/05/31 12:47:15;;;;;;;3.13;2.92;;;22.30;84.90;;;;;;5061346;28;20043;-72
2021/05/31 12:49:49;;;;;;;2.65;2.45;;;22.80;83.10;;;;;;5062588;28;20111;-71
2021/05/31 12:52:28;;;;;;;2.72;2.20;;;22.30;85.80;;;;;;5074629;28;20622;-72
2021/05/31 12:55:26;;;;;;;3.92;2.72;;;21.60;82.50;;;;;;5041481;28;20036;-72
2021/05/31 12:57:52;;;;;;;2.78;2.58;;;22.20;86.40;;;;;;5057064;28;20036;-72
2021/05/31 13:00:26;;;;;;;4.07;2.83;;;22.70;85.50;;;;;;5054087;28;20017;-73
2021/05/31 13:02:54;;;;;;;3.15;2.75;;;22.50;83.20;;;;;;5068094;28;20020;-72
2021/05/31 13:05:25;;;;;;;2.72;2.33;;;21.30;84.80;;;;;;5063481;28;20618;-72
2021/05/31 13:07:55;;;;;;;2.97;2.58;;;21.40;85.50;;;;;;5058156;28;20381;-72
2021/05/31 13:10:29;;;;;;;3.13;2.33;;;20.90;83.70;;;;;;5064403;28;20025;-72
2021/05/31 13:13:04;;;;;;;2.67;2.47;;;20.80;86.30;;;;;;5056344;28;20032;-72
2021/05/31 13:15:49;;;;;;;2.65;2.45;;;20.50;88.90;;;;;;5066753;28;20514;-74
2021/05/31 13:18:27;;;;;;;3.42;2.28;;;22.00;85.20;;;;;;5051803;28;20032;-72